Scroll down
FLIGHT INFORMATION
Ryanair

RYR3681

At Arrival Gate

LIRN
 LIRA
DATE: 2020-12-04
GATE: 
GATE DEPARTURE: 15:58
TAKEOFF: 16:05
DATE: 2020-12-04
GATE:  -
LANDING: 16:42
GATE ARRIVAL: 16:50
FLIGHT DATA
Crew: 
Speed: 
710 kph
Altitude: 
21,011 ft
Stage Length: 
174.2 km
Block Time: 
0.8 hrs
Flight Time: 
0.6 hrs
Fuel Used: 
2,055 kg
Cleared Route: LIRN ALAXI LIRA
TRACK DATA
50,000 ft 1,000 kts
AIRCRAFT INFO AND CUMULATIVE STATS
Aircraft Type: 
B738BW
Registration: 
SELCAL: 
MSN/LN: 
44691 / 5238
Operator: 
Total Flights: 
2
Total Block Time: 
2.9 hrs
Total Flight Time: 
2.5 hrs
Total Fuel Used: 
7,022 kg
DATALINK LOG | Newest first | Current as of: 2021-10-19 01:36:16
LABEL SEQUENCE CONTENT Dn/Up
QD253116:50 7.4▼ Dn
QC172616:42▼ Dn
QB405216:05▼ Dn
QA324515:58 12▼ Dn
5U4844LIRA 021947Z 02008KT 9999 SCT030 08/07 Q1006▲ Up
5S1624LIRA▼ Dn
A30918NO MATCHING FLIGHT DATA AVAILABLE FROM ANSP▲ Up
B30918LIRN LIRA J ▼ Dn
Q00817[LINK ACK]▲ Up
Q00817[LINK TEST]▼ Dn


AIRCRAFT HISTORY
FLIGHT DATE FLIGHT NO. ORIGIN DESTINATION CLEARED ROUTE BLOCK TIME FLIGHT TIME FUEL USED PILOT
2021-03-07RYR348LIRA EBBR LIRA OST SOVAN AMTEL IBRID EKDIR CERVI MOLUS VADEM GILIR PENDU IXILU DIBEX DANAR EPL NANCY JARNY ROUSY DIK GOPAS GESLO LNO EBBR2.1 hrs1.9 hrs10,950 lbMike Dryden
2020-12-04RYR3681LIRN LIRA LIRN ALAXI LIRA0.8 hrs0.6 hrs4,530 lbMike Dryden